Time,TemperatureF,DewpointF,PressureIn,WindDirection,WindDirectionDegrees,WindSpeedMPH,WindSpeedGustMPH,Humidity,HourlyPrecipIn,Conditions,Clouds,dailyrainin,SoftwareType,DateUTC
2013-04-18 00:00:00,44.8,39.9,30.09,SSE,158,12.8,12.8,83,0.04,,CLR,10.16,VWS V14.01,2013-04-18 04:00:00,
2013-04-18 00:01:00,44.8,39.6,30.09,SSE,158,12.8,12.8,82,0.04,,CLR,10.16,VWS V14.01,2013-04-18 04:01:00,
2013-04-18 00:02:00,44.8,39.6,30.03,SSE,158,12.8,12.8,82,0.04,,CLR,10.16,VWS V14.01,2013-04-18 04:02:00,
2013-04-18 00:05:00,44.8,39.9,30.03,SSE,158,12.8,12.8,83,0.00,,CLR,0.00,VWS V14.01,2013-04-18 04:05:00,
2013-04-18 00:06:00,44.8,39.9,30.03,SSE,158,12.8,12.8,83,0.00,,CLR,0.00,VWS V14.01,2013-04-18 04:06:00,
2013-04-18 00:11:00,44.6,39.8,30.03,SSE,158,12.8,12.8,83,0.00,,CLR,0.00,VWS V14.01,2013-04-18 04:11:00,
2013-04-18 00:16:00,44.6,39.8,30.03,SSE,158,12.8,12.8,83,0.00,,CLR,0.00,VWS V14.01,2013-04-18 04:16:00,
2013-04-18 00:21:00,44.6,40.1,30.03,SSE,158,12.8,12.8,84,0.00,,CLR,0.00,VWS V14.01,2013-04-18 04:21:00,
2013-04-18 00:26:00,44.4,40.2,30.03,SSE,158,12.8,12.8,85,0.00,,CLR,0.00,VWS V14.01,2013-04-18 04:26:00,
2013-04-18 00:31:00,44.4,40.5,30.03,SSE,158,12.8,12.8,86,0.00,,CLR,0.00,VWS V14.01,2013-04-18 04:31:00,
2013-04-18 00:36:00,44.6,40.7,30.03,SSE,158,12.8,12.8,86,0.00,,CLR,0.00,VWS V14.01,2013-04-18 04:36:00,
2013-04-18 00:40:00,44.6,40.4,30.03,SSE,158,12.8,12.8,85,0.00,,CLR,0.00,VWS V14.01,2013-04-18 04:40:00,
2013-04-18 00:45:00,44.6,40.7,30.03,ESE,112,9.6,12.8,86,0.00,,CLR,0.00,VWS V14.01,2013-04-18 04:45:00,
2013-04-18 00:50:00,44.8,40.9,30.03,ESE,112,9.6,12.8,86,0.00,,CLR,0.00,VWS V14.01,2013-04-18 04:50:00,
2013-04-18 00:55:00,44.8,41.2,30.03,ESE,112,9.6,12.8,87,0.00,,CLR,0.00,VWS V14.01,2013-04-18 04:55:00,
2013-04-18 01:00:00,44.8,41.2,30.03,SE,135,11.0,12.8,87,0.00,,CLR,0.00,VWS V14.01,2013-04-18 05:00:00,
2013-04-18 01:05:00,45.0,41.3,29.97,SE,135,11.0,11.0,87,0.00,,CLR,0.00,VWS V14.01,2013-04-18 05:05:00,
2013-04-18 01:10:00,45.0,41.3,29.97,SE,135,11.0,11.0,87,0.00,,CLR,0.00,VWS V14.01,2013-04-18 05:10:00,
2013-04-18 01:15:00,45.1,41.5,29.97,SE,135,11.0,11.0,87,0.00,,CLR,0.00,VWS V14.01,2013-04-18 05:15:00,
2013-04-18 01:20:00,45.1,41.5,29.97,SSE,158,2.5,11.0,87,0.00,,CLR,0.00,VWS V14.01,2013-04-18 05:20:00,
2013-04-18 01:25:00,45.1,41.5,29.97,SSE,158,2.5,11.0,87,0.00,,CLR,0.00,VWS V14.01,2013-04-18 05:25:00,
2013-04-18 01:30:00,45.3,42.0,29.97,SSE,158,2.5,11.0,88,0.00,,CLR,0.00,VWS V14.01,2013-04-18 05:30:00,
2013-04-18 01:35:00,45.3,42.3,29.97,SSE,158,2.5,11.0,89,0.00,,CLR,0.00,VWS V14.01,2013-04-18 05:35:00,
2013-04-18 01:40:00,45.5,42.7,29.97,SSE,158,2.5,11.0,90,0.00,,CLR,0.00,VWS V14.01,2013-04-18 05:40:00,
2013-04-18 01:45:00,45.7,43.2,29.97,SSE,158,6.0,11.0,91,0.00,,CLR,0.00,VWS V14.01,2013-04-18 05:45:00,
2013-04-18 01:50:00,45.9,43.7,29.94,SSE,158,6.0,11.0,92,0.00,,CLR,0.00,VWS V14.01,2013-04-18 05:50:00,
2013-04-18 01:55:00,46.0,43.8,29.94,SSE,158,6.0,11.0,92,0.00,,CLR,0.00,VWS V14.01,2013-04-18 05:55:00,
2013-04-18 02:00:00,46.2,43.7,29.94,SSE,158,8.5,11.0,91,0.00,,CLR,0.00,VWS V14.01,2013-04-18 06:00:00,
2013-04-18 02:05:00,46.4,43.9,29.97,SSE,158,8.5,8.5,91,0.00,,CLR,0.00,VWS V14.01,2013-04-18 06:05:00,
2013-04-18 02:10:00,46.4,43.9,29.97,SSE,158,7.6,8.5,91,0.00,,CLR,0.00,VWS V14.01,2013-04-18 06:10:00,
2013-04-18 02:15:00,46.6,44.1,29.97,SSE,158,7.6,8.5,91,0.04,,CLR,0.04,VWS V14.01,2013-04-18 06:15:00,
2013-04-18 02:20:00,46.6,44.1,29.97,SSE,158,10.5,10.5,91,0.04,,CLR,0.04,VWS V14.01,2013-04-18 06:20:00,
2013-04-18 02:25:00,46.6,44.1,29.97,SSE,158,10.1,10.5,91,0.04,,CLR,0.04,VWS V14.01,2013-04-18 06:25:00,
2013-04-18 02:31:00,46.6,44.4,29.97,SSE,158,6.5,10.5,92,0.04,,CLR,0.04,VWS V14.01,2013-04-18 06:31:00,
2013-04-18 02:36:00,46.6,44.4,29.91,ESE,112,6.3,10.5,92,0.04,,CLR,0.04,VWS V14.01,2013-04-18 06:36:00,
2013-04-18 02:41:00,46.6,44.7,29.91,SSE,158,10.1,10.5,93,0.04,,CLR,0.04,VWS V14.01,2013-04-18 06:41:00,
2013-04-18 02:46:00,46.6,45.0,29.91,SSE,158,8.5,10.5,94,0.08,,CLR,0.08,VWS V14.01,2013-04-18 06:46:00,
2013-04-18 02:51:00,46.8,45.1,29.91,South,180,12.3,12.3,94,0.08,,CLR,0.08,VWS V14.01,2013-04-18 06:51:00,
2013-04-18 02:56:00,46.8,45.4,29.91,SSE,158,7.4,12.3,95,0.12,,CLR,0.12,VWS V14.01,2013-04-18 06:56:00,
2013-04-18 03:00:00,46.8,45.4,29.91,SSE,158,7.4,12.3,95,0.21,,CLR,0.21,VWS V14.01,2013-04-18 07:00:00,
2013-04-18 03:01:00,46.8,45.4,29.91,SSE,158,7.4,12.3,95,0.16,,CLR,0.16,VWS V14.01,2013-04-18 07:01:00,
2013-04-18 03:06:00,46.8,45.4,29.91,SSE,158,7.4,7.4,95,0.33,,CLR,0.33,VWS V14.01,2013-04-18 07:06:00,
2013-04-18 03:11:00,46.8,45.4,29.91,SSE,158,7.4,7.4,95,0.33,,CLR,0.33,VWS V14.01,2013-04-18 07:11:00,
2013-04-18 03:16:00,46.8,45.7,29.91,SSE,158,7.4,7.4,96,0.33,,CLR,0.33,VWS V14.01,2013-04-18 07:16:00,
2013-04-18 03:21:00,46.9,46.1,29.91,SSE,158,7.4,7.4,97,0.33,,CLR,0.33,VWS V14.01,2013-04-18 07:21:00,
2013-04-18 03:27:00,46.9,46.4,29.91,SSE,158,7.4,7.4,98,0.33,,CLR,0.33,VWS V14.01,2013-04-18 07:27:00,
2013-04-18 03:32:00,47.1,46.6,29.91,SSE,158,7.4,7.4,98,0.33,,CLR,0.33,VWS V14.01,2013-04-18 07:32:00,
2013-04-18 03:37:00,46.9,46.4,29.91,SSE,158,7.4,7.4,98,0.33,,CLR,0.33,VWS V14.01,2013-04-18 07:37:00,
2013-04-18 03:42:00,47.1,46.6,29.91,SSE,158,7.4,7.4,98,0.33,,CLR,0.33,VWS V14.01,2013-04-18 07:42:00,
2013-04-18 03:47:00,47.3,46.8,29.88,SSE,158,7.4,7.4,98,0.33,,CLR,0.33,VWS V14.01,2013-04-18 07:47:00,
2013-04-18 03:52:00,47.3,46.8,29.88,SSE,158,7.4,7.4,98,0.33,,CLR,0.33,VWS V14.01,2013-04-18 07:52:00,
2013-04-18 03:57:00,47.3,46.8,29.88,SSE,158,7.4,7.4,98,0.33,,CLR,0.33,VWS V14.01,2013-04-18 07:57:00,
2013-04-18 04:00:00,47.1,46.6,29.85,SSE,158,7.4,7.4,98,0.33,,CLR,0.33,VWS V14.01,2013-04-18 08:00:00,
2013-04-18 04:02:00,47.1,46.6,29.85,SSE,158,7.4,7.4,98,0.33,,CLR,0.33,VWS V14.01,2013-04-18 08:02:00,
2013-04-18 04:07:00,47.3,46.8,29.85,SSE,158,7.4,7.4,98,0.12,,CLR,0.33,VWS V14.01,2013-04-18 08:07:00,
2013-04-18 04:12:00,47.5,47.0,29.85,SE,135,12.5,12.5,98,0.12,,CLR,0.33,VWS V14.01,2013-04-18 08:12:00,
2013-04-18 04:17:00,47.5,47.0,29.85,SE,135,12.5,12.5,98,0.12,,CLR,0.33,VWS V14.01,2013-04-18 08:17:00,
2013-04-18 04:22:00,47.7,46.8,29.85,SE,135,12.5,12.5,97,0.12,,CLR,0.33,VWS V14.01,2013-04-18 08:22:00,
2013-04-18 04:27:00,47.7,46.6,29.85,SE,135,12.5,12.5,96,0.12,,CLR,0.33,VWS V14.01,2013-04-18 08:27:00,
2013-04-18 04:32:00,47.7,46.3,29.85,SE,135,12.5,12.5,95,0.12,,CLR,0.33,VWS V14.01,2013-04-18 08:32:00,
2013-04-18 04:38:00,47.7,46.0,29.85,SE,135,12.5,12.5,94,0.12,,CLR,0.33,VWS V14.01,2013-04-18 08:38:00,
2013-04-18 04:43:00,47.5,45.6,29.85,SE,135,12.5,12.5,93,0.12,,CLR,0.33,VWS V14.01,2013-04-18 08:43:00,
2013-04-18 04:48:00,47.5,45.6,29.85,SE,135,12.5,12.5,93,0.12,,CLR,0.33,VWS V14.01,2013-04-18 08:48:00,
2013-04-18 04:53:00,47.5,45.6,29.85,SE,135,12.5,12.5,93,0.12,,CLR,0.33,VWS V14.01,2013-04-18 08:53:00,
2013-04-18 04:58:00,47.7,45.7,29.85,SE,135,12.5,12.5,93,0.12,,CLR,0.33,VWS V14.01,2013-04-18 08:58:00,
2013-04-18 05:00:00,47.3,45.7,29.91,WNW,292,10.5,12.5,94,0.12,,CLR,0.33,VWS V14.01,2013-04-18 09:00:00,
2013-04-18 05:03:00,46.9,45.0,29.91,WNW,292,10.5,10.5,93,0.00,,CLR,0.33,VWS V14.01,2013-04-18 09:03:00,
2013-04-18 05:08:00,46.2,44.3,29.91,NNE,22,10.1,10.5,93,0.00,,CLR,0.33,VWS V14.01,2013-04-18 09:08:00,
2013-04-18 05:13:00,46.2,44.6,29.91,NNE,22,10.1,10.5,94,0.00,,CLR,0.33,VWS V14.01,2013-04-18 09:13:00,
2013-04-18 05:18:00,46.2,45.2,29.85,NNE,22,10.1,10.5,96,0.00,,CLR,0.33,VWS V14.01,2013-04-18 09:18:00,
2013-04-18 05:23:00,46.2,45.4,29.85,NNE,22,10.1,10.5,97,0.00,,CLR,0.33,VWS V14.01,2013-04-18 09:23:00,
2013-04-18 05:28:00,46.2,45.7,29.85,NNE,22,10.1,10.5,98,0.04,,CLR,0.37,VWS V14.01,2013-04-18 09:28:00,
2013-04-18 05:33:00,46.2,45.7,29.85,NNE,22,10.1,10.5,98,0.04,,CLR,0.37,VWS V14.01,2013-04-18 09:33:00,
2013-04-18 05:38:00,46.4,45.9,29.85,NNE,22,10.1,10.5,98,0.04,,CLR,0.37,VWS V14.01,2013-04-18 09:38:00,
2013-04-18 05:43:00,46.2,45.7,29.85,NNE,22,10.1,10.5,98,0.04,,CLR,0.37,VWS V14.01,2013-04-18 09:43:00,
2013-04-18 05:48:00,46.0,45.5,29.85,NNE,22,10.1,10.5,98,0.04,,CLR,0.37,VWS V14.01,2013-04-18 09:48:00,
2013-04-18 05:53:00,45.7,45.2,29.85,NNE,22,5.6,10.5,98,0.09,,CLR,0.42,VWS V14.01,2013-04-18 09:53:00,
2013-04-18 05:58:00,45.7,45.2,29.85,NNE,22,5.6,10.5,98,0.09,,CLR,0.42,VWS V14.01,2013-04-18 09:58:00,
2013-04-18 06:00:00,45.7,45.2,29.80,East,90,5.4,6.3,98,0.13,,CLR,0.46,VWS V14.01,2013-04-18 10:00:00,
2013-04-18 06:03:00,45.5,45.0,29.85,NNE,22,5.6,5.6,98,0.13,,CLR,0.46,VWS V14.01,2013-04-18 10:03:00,
2013-04-18 06:08:00,45.5,45.0,29.85,NNE,22,5.6,5.6,98,0.13,,CLR,0.46,VWS V14.01,2013-04-18 10:08:00,
2013-04-18 06:13:00,45.5,45.0,29.85,NNE,22,5.6,5.6,98,0.13,,CLR,0.46,VWS V14.01,2013-04-18 10:13:00,
2013-04-18 06:18:00,45.5,45.0,29.85,NNE,22,5.6,5.6,98,0.13,,CLR,0.46,VWS V14.01,2013-04-18 10:18:00,
2013-04-18 06:24:00,45.5,45.0,29.85,NNE,22,6.3,6.3,98,0.13,,CLR,0.46,VWS V14.01,2013-04-18 10:24:00,
2013-04-18 06:29:00,45.5,45.0,29.85,NNE,22,6.3,6.3,98,0.13,,CLR,0.46,VWS V14.01,2013-04-18 10:29:00,
2013-04-18 06:34:00,45.5,45.0,29.85,NNE,22,6.3,6.3,98,0.13,,CLR,0.46,VWS V14.01,2013-04-18 10:34:00,
2013-04-18 06:39:00,45.5,45.0,29.85,NNE,22,6.3,6.3,98,0.13,,CLR,0.46,VWS V14.01,2013-04-18 10:39:00,
2013-04-18 06:44:00,45.7,45.2,29.85,East,90,5.4,6.3,98,0.13,,CLR,0.46,VWS V14.01,2013-04-18 10:44:00,
2013-04-18 06:49:00,45.7,45.2,29.79,East,90,5.4,6.3,98,0.13,,CLR,0.46,VWS V14.01,2013-04-18 10:49:00,
2013-04-18 06:54:00,45.7,45.2,29.79,East,90,5.4,6.3,98,0.13,,CLR,0.46,VWS V14.01,2013-04-18 10:54:00,
2013-04-18 06:59:00,45.7,45.2,29.79,East,90,5.4,6.3,98,0.13,,CLR,0.46,VWS V14.01,2013-04-18 10:59:00,
2013-04-18 07:00:00,45.7,45.2,29.80,ENE,68,4.9,6.3,98,0.13,,CLR,0.46,VWS V14.01,2013-04-18 11:00:00,
2013-04-18 07:04:00,45.7,45.2,29.79,ENE,68,4.9,4.9,98,0.00,,CLR,0.46,VWS V14.01,2013-04-18 11:04:00,
2013-04-18 07:09:00,45.9,45.3,29.79,ENE,68,4.9,4.9,98,0.00,,CLR,0.46,VWS V14.01,2013-04-18 11:09:00,
2013-04-18 07:14:00,45.9,45.3,29.79,ENE,68,4.9,4.9,98,0.00,,CLR,0.46,VWS V14.01,2013-04-18 11:14:00,
2013-04-18 07:19:00,45.9,45.3,29.79,ENE,68,4.9,4.9,98,0.00,,CLR,0.46,VWS V14.01,2013-04-18 11:19:00,
2013-04-18 07:24:00,46.0,45.5,29.79,ESE,112,5.4,5.8,98,0.00,,CLR,0.46,VWS V14.01,2013-04-18 11:24:00,
2013-04-18 07:29:00,46.0,45.5,29.79,ESE,112,5.4,5.8,98,0.00,,CLR,0.46,VWS V14.01,2013-04-18 11:29:00,
2013-04-18 07:34:00,46.0,45.5,29.79,East,90,4.0,5.8,98,0.00,,CLR,0.46,VWS V14.01,2013-04-18 11:34:00,
2013-04-18 07:39:00,46.2,45.7,29.79,East,90,4.0,5.8,98,0.00,,CLR,0.46,VWS V14.01,2013-04-18 11:39:00,
2013-04-18 07:44:00,46.4,45.9,29.79,East,90,4.0,5.8,98,0.00,,CLR,0.46,VWS V14.01,2013-04-18 11:44:00,
2013-04-18 07:49:00,46.6,46.0,29.76,East,90,4.0,5.8,98,0.00,,CLR,0.46,VWS V14.01,2013-04-18 11:49:00,
2013-04-18 07:54:00,46.8,46.2,29.76,ESE,112,4.9,5.8,98,0.00,,CLR,0.46,VWS V14.01,2013-04-18 11:54:00,
2013-04-18 07:59:00,46.9,46.4,29.76,ESE,112,4.9,5.8,98,0.00,,CLR,0.46,VWS V14.01,2013-04-18 11:59:00,
2013-04-18 08:00:00,46.9,46.4,29.76,ESE,112,4.9,5.8,98,0.00,,CLR,0.46,VWS V14.01,2013-04-18 12:00:00,
2013-04-18 08:04:00,47.1,46.6,29.76,ESE,112,4.9,4.9,98,0.00,,CLR,0.46,VWS V14.01,2013-04-18 12:04:00,
2013-04-18 08:09:00,47.3,46.8,29.76,ESE,112,4.9,4.9,98,0.00,,CLR,0.46,VWS V14.01,2013-04-18 12:09:00,
2013-04-18 08:14:00,47.7,47.1,29.76,ESE,112,4.9,4.9,98,0.00,,CLR,0.46,VWS V14.01,2013-04-18 12:14:00,
2013-04-18 08:19:00,47.8,47.3,29.74,ESE,112,4.9,4.9,98,0.00,,CLR,0.46,VWS V14.01,2013-04-18 12:19:00,
2013-04-18 08:24:00,48.2,47.7,29.74,ESE,112,4.9,4.9,98,0.00,,CLR,0.46,VWS V14.01,2013-04-18 12:24:00,
2013-04-18 08:29:00,48.4,47.8,29.74,ESE,112,4.9,4.9,98,0.00,,CLR,0.46,VWS V14.01,2013-04-18 12:29:00,
2013-04-18 08:35:00,48.7,48.2,29.74,ESE,112,4.9,4.9,98,0.00,,CLR,0.46,VWS V14.01,2013-04-18 12:35:00,
2013-04-18 08:40:00,48.7,48.2,29.74,ESE,112,4.9,4.9,98,0.00,,CLR,0.46,VWS V14.01,2013-04-18 12:40:00,
2013-04-18 08:45:00,49.5,48.9,29.74,ESE,112,4.9,4.9,98,0.00,,CLR,0.46,VWS V14.01,2013-04-18 12:45:00,
2013-04-18 08:50:00,50.0,49.5,29.74,ESE,112,4.9,4.9,98,0.00,,CLR,0.46,VWS V14.01,2013-04-18 12:50:00,
2013-04-18 08:55:00,50.4,49.8,29.74,ESE,112,4.9,4.9,98,0.00,,CLR,0.46,VWS V14.01,2013-04-18 12:55:00,
2013-04-18 09:00:00,51.1,50.5,29.74,ESE,112,4.9,4.9,98,0.00,,CLR,0.46,VWS V14.01,2013-04-18 13:00:00,
2013-04-18 09:05:00,52.0,51.4,29.74,ESE,112,4.9,4.9,98,0.00,,CLR,0.46,VWS V14.01,2013-04-18 13:05:00,
2013-04-18 09:10:00,52.9,52.3,29.74,ESE,112,4.9,4.9,98,0.00,,CLR,0.46,VWS V14.01,2013-04-18 13:10:00,
2013-04-18 09:15:00,54.3,53.8,29.74,ESE,112,4.9,4.9,98,0.00,,CLR,0.46,VWS V14.01,2013-04-18 13:15:00,
2013-04-18 09:20:00,55.9,55.4,29.71,SSE,158,10.3,10.3,98,0.00,,CLR,0.46,VWS V14.01,2013-04-18 13:20:00,
2013-04-18 09:25:00,57.0,55.6,29.71,SSE,158,10.3,10.3,95,0.00,,CLR,0.46,VWS V14.01,2013-04-18 13:25:00,
2013-04-18 09:30:00,57.4,55.4,29.71,SSE,158,10.3,10.3,93,0.00,,CLR,0.46,VWS V14.01,2013-04-18 13:30:00,
2013-04-18 09:35:00,58.3,56.3,29.71,SSE,158,10.3,10.3,93,0.00,,CLR,0.46,VWS V14.01,2013-04-18 13:35:00,
2013-04-18 09:40:00,58.8,56.2,29.71,SSE,158,10.3,10.3,91,0.00,,CLR,0.46,VWS V14.01,2013-04-18 13:40:00,
2013-04-18 09:45:00,59.2,56.2,29.71,SSE,158,10.3,10.3,90,0.00,,CLR,0.46,VWS V14.01,2013-04-18 13:45:00,
2013-04-18 09:50:00,59.5,56.0,29.71,SSE,158,10.3,10.3,88,0.00,,CLR,0.46,VWS V14.01,2013-04-18 13:50:00,
2013-04-18 09:55:00,59.9,56.0,29.71,SSE,158,10.3,10.3,87,0.00,,CLR,0.46,VWS V14.01,2013-04-18 13:55:00,
2013-04-18 10:00:00,60.1,56.2,29.71,SSE,158,10.3,10.3,87,0.00,,CLR,0.46,VWS V14.01,2013-04-18 14:00:00,
2013-04-18 10:05:00,60.3,56.4,29.68,West,270,3.6,10.3,87,0.00,,CLR,0.46,VWS V14.01,2013-04-18 14:05:00,
2013-04-18 10:11:00,60.8,56.9,29.68,SSW,202,4.9,10.3,87,0.00,,CLR,0.46,VWS V14.01,2013-04-18 14:11:00,
2013-04-18 10:16:00,61.3,57.1,29.68,SSW,202,6.7,10.3,86,0.00,,CLR,0.46,VWS V14.01,2013-04-18 14:16:00,
2013-04-18 10:21:00,61.9,57.3,29.68,SSW,202,6.3,10.3,85,0.00,,CLR,0.46,VWS V14.01,2013-04-18 14:21:00,
2013-04-18 10:26:00,63.0,57.7,29.68,South,180,6.0,10.3,83,0.00,,CLR,0.46,VWS V14.01,2013-04-18 14:26:00,
2013-04-18 10:31:00,63.3,57.7,29.68,SSW,202,7.8,10.3,82,0.00,,CLR,0.46,VWS V14.01,2013-04-18 14:31:00,
2013-04-18 10:37:00,64.2,58.6,29.68,SSW,202,7.6,11.0,82,0.00,,CLR,0.46,VWS V14.01,2013-04-18 14:37:00,
2013-04-18 10:42:00,65.5,58.8,29.68,SW,225,7.2,11.0,79,0.00,,CLR,0.46,VWS V14.01,2013-04-18 14:42:00,
2013-04-18 10:47:00,66.2,58.4,29.68,SSW,202,11.2,13.2,76,0.00,,CLR,0.46,VWS V14.01,2013-04-18 14:47:00,
2013-04-18 10:52:00,66.7,58.9,29.68,SSW,202,6.5,13.2,76,0.00,,CLR,0.46,VWS V14.01,2013-04-18 14:52:00,
2013-04-18 10:57:00,67.1,59.3,29.68,SW,225,10.5,13.2,76,0.00,,CLR,0.46,VWS V14.01,2013-04-18 14:57:00,
2013-04-18 11:00:00,68.0,59.4,29.68,SSW,202,9.8,14.5,74,0.00,,CLR,0.46,VWS V14.01,2013-04-18 15:00:00,
2013-04-18 11:02:00,68.0,59.4,29.68,SSW,202,8.7,14.5,74,0.00,,CLR,0.46,VWS V14.01,2013-04-18 15:02:00,
2013-04-18 11:07:00,68.4,59.8,29.68,SSW,202,15.4,15.4,74,0.00,,CLR,0.46,VWS V14.01,2013-04-18 15:07:00,
2013-04-18 11:12:00,68.7,59.3,29.68,SSW,202,11.2,17.0,72,0.00,,CLR,0.46,VWS V14.01,2013-04-18 15:12:00,
2013-04-18 11:17:00,68.5,58.8,29.65,SSW,202,17.5,17.5,71,0.00,,CLR,0.46,VWS V14.01,2013-04-18 15:17:00,
2013-04-18 11:22:00,69.1,59.7,29.65,South,180,12.1,17.5,72,0.00,,CLR,0.46,VWS V14.01,2013-04-18 15:22:00,
2013-04-18 11:27:00,69.4,59.6,29.65,SSW,202,12.8,22.8,71,0.00,,CLR,0.46,VWS V14.01,2013-04-18 15:27:00,
2013-04-18 11:33:00,69.4,59.6,29.62,SSW,202,15.2,23.7,71,0.04,,CLR,0.50,VWS V14.01,2013-04-18 15:33:00,
2013-04-18 11:39:00,69.3,59.5,29.62,SSW,202,25.1,25.1,71,0.04,,CLR,0.50,VWS V14.01,2013-04-18 15:39:00,
2013-04-18 11:44:00,69.4,60.0,29.62,SSW,202,12.8,25.1,72,0.04,,CLR,0.50,VWS V14.01,2013-04-18 15:44:00,
2013-04-18 11:49:00,70.7,60.5,29.62,SSW,202,15.2,25.1,70,0.04,,CLR,0.50,VWS V14.01,2013-04-18 15:49:00,
2013-04-18 11:54:00,71.8,61.1,29.62,SW,225,12.3,25.1,69,0.04,,CLR,0.50,VWS V14.01,2013-04-18 15:54:00,
2013-04-18 11:59:00,71.6,60.5,29.62,SSW,202,12.8,25.5,68,0.04,,CLR,0.50,VWS V14.01,2013-04-18 15:59:00,
2013-04-18 12:00:00,72.5,60.5,29.62,South,180,22.6,25.5,66,0.04,,CLR,0.50,VWS V14.01,2013-04-18 16:00:00,
2013-04-18 12:04:00,72.5,60.1,29.62,SSW,202,12.5,22.6,65,0.04,,CLR,0.50,VWS V14.01,2013-04-18 16:04:00,
2013-04-18 12:09:00,72.3,60.3,29.62,SSW,202,23.3,23.3,66,0.04,,CLR,0.50,VWS V14.01,2013-04-18 16:09:00,
2013-04-18 12:14:00,72.9,60.0,29.62,SSW,202,12.8,23.3,64,0.04,,CLR,0.50,VWS V14.01,2013-04-18 16:14:00,
2013-04-18 12:19:00,73.0,59.7,29.62,South,180,19.5,23.9,63,0.04,,CLR,0.50,VWS V14.01,2013-04-18 16:19:00,
2013-04-18 12:24:00,73.4,60.5,29.62,SSW,202,13.2,23.9,64,0.04,,CLR,0.50,VWS V14.01,2013-04-18 16:24:00,
2013-04-18 12:29:00,74.3,60.9,29.62,SSW,202,16.8,23.9,63,0.04,,CLR,0.50,VWS V14.01,2013-04-18 16:29:00,
2013-04-18 12:34:00,74.5,60.2,29.56,SSW,202,15.4,28.0,61,0.04,,CLR,0.50,VWS V14.01,2013-04-18 16:34:00,
2013-04-18 12:39:00,74.7,60.3,29.56,SSW,202,23.5,28.0,61,0.04,,CLR,0.50,VWS V14.01,2013-04-18 16:39:00,
2013-04-18 12:44:00,74.8,60.0,29.56,SSW,202,19.5,28.0,60,0.04,,CLR,0.50,VWS V14.01,2013-04-18 16:44:00,
2013-04-18 12:49:00,74.7,60.3,29.53,South,180,12.5,28.0,61,0.04,,CLR,0.50,VWS V14.01,2013-04-18 16:49:00,
2013-04-18 12:54:00,75.0,60.7,29.53,SSW,202,12.8,28.0,61,0.04,,CLR,0.50,VWS V14.01,2013-04-18 16:54:00,
2013-04-18 12:59:00,74.8,60.0,29.53,SSW,202,18.6,28.0,60,0.04,,CLR,0.50,VWS V14.01,2013-04-18 16:59:00,
2013-04-18 13:00:00,74.7,59.9,29.56,SSW,202,18.6,28.0,60,0.04,,CLR,0.50,VWS V14.01,2013-04-18 17:00:00,
2013-04-18 13:05:00,74.7,59.9,29.56,SSW,202,11.0,18.6,60,0.00,,CLR,0.50,VWS V14.01,2013-04-18 17:05:00,
2013-04-18 13:10:00,74.1,59.8,29.56,SSW,202,16.3,27.1,61,0.00,,CLR,0.50,VWS V14.01,2013-04-18 17:10:00,
2013-04-18 13:15:00,73.9,59.7,29.56,SW,225,17.9,27.1,61,0.00,,CLR,0.50,VWS V14.01,2013-04-18 17:15:00,
2013-04-18 13:20:00,73.9,59.7,29.56,SSW,202,31.8,31.8,61,0.00,,CLR,0.50,VWS V14.01,2013-04-18 17:20:00,
2013-04-18 13:25:00,72.9,60.0,29.56,SSW,202,31.8,31.8,64,0.00,,CLR,0.50,VWS V14.01,2013-04-18 17:25:00,
2013-04-18 13:30:00,72.3,60.3,29.56,SSW,202,10.1,31.8,66,0.00,,CLR,0.50,VWS V14.01,2013-04-18 17:30:00,
2013-04-18 13:35:00,71.6,60.9,29.53,SSW,202,10.1,31.8,69,0.00,,CLR,0.50,VWS V14.01,2013-04-18 17:35:00,
2013-04-18 13:40:00,70.9,61.4,29.53,WSW,248,22.4,31.8,72,0.00,,CLR,0.50,VWS V14.01,2013-04-18 17:40:00,
2013-04-18 13:45:00,70.2,62.2,29.53,WSW,248,22.4,31.8,76,0.00,,CLR,0.50,VWS V14.01,2013-04-18 17:45:00,
2013-04-18 13:50:00,70.0,62.5,29.56,WSW,248,22.4,31.8,77,0.00,,CLR,0.50,VWS V14.01,2013-04-18 17:50:00,
2013-04-18 13:55:00,69.4,62.7,29.56,WSW,248,22.4,31.8,79,0.00,,CLR,0.50,VWS V14.01,2013-04-18 17:55:00,
2013-04-18 14:00:00,69.3,61.4,29.56,SSW,202,13.2,31.8,76,0.00,,CLR,0.50,VWS V14.01,2013-04-18 18:00:00,
2013-04-18 14:05:00,69.4,60.0,29.53,SSW,202,13.2,13.2,72,0.00,,CLR,0.50,VWS V14.01,2013-04-18 18:05:00,
2013-04-18 14:10:00,69.3,59.5,29.53,SSW,202,13.2,13.2,71,0.00,,CLR,0.50,VWS V14.01,2013-04-18 18:10:00,
2013-04-18 14:15:00,69.1,58.1,29.53,SSW,202,13.2,13.2,68,0.00,,CLR,0.50,VWS V14.01,2013-04-18 18:15:00,
2013-04-18 14:20:00,69.1,58.1,29.53,SSW,202,13.2,13.2,68,0.00,,CLR,0.50,VWS V14.01,2013-04-18 18:20:00,
2013-04-18 14:25:00,68.9,57.9,29.53,SSW,202,19.5,19.5,68,0.00,,CLR,0.50,VWS V14.01,2013-04-18 18:25:00,
2013-04-18 14:30:00,68.5,58.0,29.53,SSW,202,15.2,19.5,69,0.00,,CLR,0.50,VWS V14.01,2013-04-18 18:30:00,
2013-04-18 14:35:00,68.2,58.4,29.56,SW,225,15.2,19.5,71,0.00,,CLR,0.50,VWS V14.01,2013-04-18 18:35:00,
2013-04-18 14:40:00,68.0,58.7,29.56,SW,225,17.0,19.5,72,0.00,,CLR,0.50,VWS V14.01,2013-04-18 18:40:00,
2013-04-18 14:45:00,67.8,59.2,29.56,SW,225,17.2,19.5,74,0.00,,CLR,0.50,VWS V14.01,2013-04-18 18:45:00,
2013-04-18 14:51:00,68.0,59.4,29.56,SSW,202,10.7,19.5,74,0.00,,CLR,0.50,VWS V14.01,2013-04-18 18:51:00,
2013-04-18 14:56:00,68.2,60.3,29.56,SW,225,17.0,19.5,76,0.00,,CLR,0.50,VWS V14.01,2013-04-18 18:56:00,
2013-04-18 15:00:00,68.0,59.8,29.56,SW,225,15.2,19.5,75,0.00,,CLR,0.50,VWS V14.01,2013-04-18 19:00:00,
2013-04-18 15:01:00,68.0,60.2,29.56,SSW,202,10.3,19.5,76,0.00,,CLR,0.50,VWS V14.01,2013-04-18 19:01:00,
2013-04-18 15:06:00,68.4,60.5,29.56,SW,225,13.4,17.7,76,0.00,,CLR,0.50,VWS V14.01,2013-04-18 19:06:00,
2013-04-18 15:11:00,68.7,59.7,29.56,SSW,202,16.1,20.4,73,0.00,,CLR,0.50,VWS V14.01,2013-04-18 19:11:00,
2013-04-18 15:16:00,68.7,59.7,29.53,SSW,202,12.8,22.4,73,0.00,,CLR,0.50,VWS V14.01,2013-04-18 19:16:00,
2013-04-18 15:22:00,68.5,59.9,29.53,SSW,202,21.0,22.4,74,0.00,,CLR,0.50,VWS V14.01,2013-04-18 19:22:00,
2013-04-18 15:27:00,68.4,59.8,29.53,SW,225,12.5,22.4,74,0.00,,CLR,0.50,VWS V14.01,2013-04-18 19:27:00,
2013-04-18 15:32:00,68.5,59.9,29.56,SSW,202,14.1,22.4,74,0.00,,CLR,0.50,VWS V14.01,2013-04-18 19:32:00,
2013-04-18 15:37:00,68.9,59.1,29.56,SW,225,15.7,22.4,71,0.00,,CLR,0.50,VWS V14.01,2013-04-18 19:37:00,
2013-04-18 15:43:00,69.1,59.3,29.56,SW,225,17.2,24.2,71,0.00,,CLR,0.50,VWS V14.01,2013-04-18 19:43:00,
2013-04-18 15:48:00,68.7,58.5,29.56,SSW,202,12.8,24.2,70,0.00,,CLR,0.50,VWS V14.01,2013-04-18 19:48:00,
2013-04-18 15:53:00,68.5,58.8,29.53,SW,225,15.7,24.2,71,0.00,,CLR,0.50,VWS V14.01,2013-04-18 19:53:00,
2013-04-18 15:58:00,68.4,58.6,29.53,WSW,248,12.8,24.2,71,0.00,,CLR,0.50,VWS V14.01,2013-04-18 19:58:00,
2013-04-18 16:00:00,68.2,58.4,29.56,SW,225,14.8,24.2,71,0.00,,CLR,0.50,VWS V14.01,2013-04-18 20:00:00,
2013-04-18 16:03:00,68.0,59.0,29.56,SW,225,20.4,20.4,73,0.00,,CLR,0.50,VWS V14.01,2013-04-18 20:03:00,
2013-04-18 16:08:00,67.6,59.1,29.56,SW,225,16.1,20.4,74,0.00,,CLR,0.50,VWS V14.01,2013-04-18 20:08:00,
2013-04-18 16:13:00,67.3,58.3,29.56,WSW,248,13.9,20.4,73,0.00,,CLR,0.50,VWS V14.01,2013-04-18 20:13:00,
2013-04-18 16:18:00,66.9,58.8,29.56,WSW,248,14.8,20.4,75,0.00,,CLR,0.50,VWS V14.01,2013-04-18 20:18:00,
2013-04-18 16:23:00,66.7,58.2,29.56,WSW,248,12.1,20.4,74,0.00,,CLR,0.50,VWS V14.01,2013-04-18 20:23:00,
2013-04-18 16:28:00,66.6,58.0,29.56,SW,225,13.6,20.4,74,0.00,,CLR,0.50,VWS V14.01,2013-04-18 20:28:00,
2013-04-18 16:33:00,66.6,58.4,29.56,WSW,248,8.5,20.4,75,0.00,,CLR,0.50,VWS V14.01,2013-04-18 20:33:00,
2013-04-18 16:39:00,66.4,58.6,29.56,WSW,248,8.1,20.4,76,0.00,,CLR,0.50,VWS V14.01,2013-04-18 20:39:00,
2013-04-18 16:44:00,66.2,58.8,29.56,WSW,248,9.6,20.4,77,0.00,,CLR,0.50,VWS V14.01,2013-04-18 20:44:00,
2013-04-18 16:49:00,65.8,59.5,29.56,WSW,248,7.4,20.4,80,0.00,,CLR,0.50,VWS V14.01,2013-04-18 20:49:00,
2013-04-18 16:54:00,65.7,59.7,29.56,SW,225,8.1,20.4,81,0.00,,CLR,0.50,VWS V14.01,2013-04-18 20:54:00,
2013-04-18 16:59:00,65.5,59.8,29.56,WSW,248,13.2,20.4,82,0.04,,CLR,0.54,VWS V14.01,2013-04-18 20:59:00,
2013-04-18 17:00:00,65.3,60.0,29.56,SW,225,8.5,20.4,83,0.04,,CLR,0.54,VWS V14.01,2013-04-18 21:00:00,
2013-04-18 17:04:00,65.1,60.2,29.56,WSW,248,9.8,9.8,84,0.04,,CLR,0.54,VWS V14.01,2013-04-18 21:04:00,
2013-04-18 17:09:00,64.9,60.3,29.56,SW,225,11.0,11.0,85,0.04,,CLR,0.54,VWS V14.01,2013-04-18 21:09:00,
2013-04-18 17:14:00,64.8,59.1,29.56,WSW,248,17.7,19.2,82,0.04,,CLR,0.54,VWS V14.01,2013-04-18 21:14:00,
2013-04-18 17:19:00,64.6,59.0,29.56,WSW,248,12.5,19.9,82,0.04,,CLR,0.54,VWS V14.01,2013-04-18 21:19:00,
2013-04-18 17:24:00,64.8,58.8,29.56,WSW,248,13.2,19.9,81,0.04,,CLR,0.54,VWS V14.01,2013-04-18 21:24:00,
2013-04-18 17:29:00,64.6,59.0,29.56,SW,225,6.0,19.9,82,0.04,,CLR,0.54,VWS V14.01,2013-04-18 21:29:00,
2013-04-18 17:34:00,64.6,58.3,29.53,SW,225,17.2,19.9,80,0.04,,CLR,0.54,VWS V14.01,2013-04-18 21:34:00,
2013-04-18 17:39:00,64.8,58.8,29.53,SW,225,10.3,19.9,81,0.04,,CLR,0.54,VWS V14.01,2013-04-18 21:39:00,
2013-04-18 17:44:00,64.8,59.5,29.53,SSW,202,7.4,19.9,83,0.04,,CLR,0.54,VWS V14.01,2013-04-18 21:44:00,
2013-04-18 17:49:00,64.8,59.8,29.53,SSW,202,10.5,19.9,84,0.04,,CLR,0.54,VWS V14.01,2013-04-18 21:49:00,
2013-04-18 17:54:00,64.6,59.6,29.53,SSW,202,8.1,19.9,84,0.04,,CLR,0.54,VWS V14.01,2013-04-18 21:54:00,
2013-04-18 17:59:00,64.2,59.0,29.53,SSW,202,17.2,19.9,83,0.04,,CLR,0.54,VWS V14.01,2013-04-18 21:59:00,
2013-04-18 18:00:00,64.2,59.0,29.53,SSW,202,11.0,19.9,83,0.04,,CLR,0.54,VWS V14.01,2013-04-18 22:00:00,
2013-04-18 18:04:00,64.2,59.0,29.53,SSW,202,10.5,11.0,83,0.00,,CLR,0.54,VWS V14.01,2013-04-18 22:04:00,
2013-04-18 18:09:00,64.0,59.1,29.53,SSW,202,8.1,12.8,84,0.00,,CLR,0.54,VWS V14.01,2013-04-18 22:09:00,
2013-04-18 18:14:00,64.0,59.5,29.53,SSW,202,7.6,12.8,85,0.00,,CLR,0.54,VWS V14.01,2013-04-18 22:14:00,
2013-04-18 18:19:00,63.9,59.3,29.53,SSW,202,11.4,13.2,85,0.00,,CLR,0.54,VWS V14.01,2013-04-18 22:19:00,
2013-04-18 18:24:00,63.7,58.8,29.53,South,180,10.7,14.8,84,0.00,,CLR,0.54,VWS V14.01,2013-04-18 22:24:00,
2013-04-18 18:29:00,63.9,58.9,29.53,SSE,158,7.6,17.7,84,0.00,,CLR,0.54,VWS V14.01,2013-04-18 22:29:00,
2013-04-18 18:34:00,63.7,58.4,29.50,SSW,202,12.1,17.7,83,0.00,,CLR,0.54,VWS V14.01,2013-04-18 22:34:00,
2013-04-18 18:39:00,63.7,58.4,29.50,SSW,202,12.3,17.7,83,0.00,,CLR,0.54,VWS V14.01,2013-04-18 22:39:00,
2013-04-18 18:45:00,63.5,57.9,29.50,SW,225,12.5,17.7,82,0.00,,CLR,0.54,VWS V14.01,2013-04-18 22:45:00,
2013-04-18 18:50:00,63.5,57.9,29.53,SW,225,15.9,17.7,82,0.00,,CLR,0.54,VWS V14.01,2013-04-18 22:50:00,
2013-04-18 18:55:00,63.5,58.2,29.53,SW,225,10.1,17.7,83,0.00,,CLR,0.54,VWS V14.01,2013-04-18 22:55:00,
2013-04-18 19:00:00,63.5,58.2,29.53,SW,225,12.1,17.7,83,0.00,,CLR,0.54,VWS V14.01,2013-04-18 23:00:00,
2013-04-18 19:05:00,63.5,58.2,29.56,SW,225,13.4,13.4,83,0.00,,CLR,0.54,VWS V14.01,2013-04-18 23:05:00,
2013-04-18 19:10:00,63.3,58.1,29.56,SW,225,13.2,14.5,83,0.00,,CLR,0.54,VWS V14.01,2013-04-18 23:10:00,
2013-04-18 19:15:00,63.5,57.9,29.56,SW,225,11.0,17.5,82,0.00,,CLR,0.54,VWS V14.01,2013-04-18 23:15:00,
2013-04-18 19:20:00,63.3,58.1,29.56,SW,225,14.5,17.5,83,0.00,,CLR,0.54,VWS V14.01,2013-04-18 23:20:00,
2013-04-18 19:25:00,63.1,57.9,29.56,SSW,202,13.0,17.5,83,0.00,,CLR,0.54,VWS V14.01,2013-04-18 23:25:00,
2013-04-18 19:30:00,63.1,57.9,29.56,SW,225,12.5,19.0,83,0.00,,CLR,0.54,VWS V14.01,2013-04-18 23:30:00,
2013-04-18 19:35:00,63.1,57.9,29.56,WSW,248,13.6,19.0,83,0.00,,CLR,0.54,VWS V14.01,2013-04-18 23:35:00,
2013-04-18 19:40:00,63.1,57.6,29.56,WSW,248,8.7,19.0,82,0.00,,CLR,0.54,VWS V14.01,2013-04-18 23:40:00,
2013-04-18 19:45:00,63.0,57.7,29.56,SW,225,13.0,19.0,83,0.00,,CLR,0.54,VWS V14.01,2013-04-18 23:45:00,
2013-04-18 19:50:00,62.8,57.2,29.56,WSW,248,10.5,19.0,82,0.00,,CLR,0.54,VWS V14.01,2013-04-18 23:50:00,
2013-04-18 19:55:00,62.8,56.9,29.56,SW,225,11.2,19.0,81,0.00,,CLR,0.54,VWS V14.01,2013-04-18 23:55:00,
2013-04-18 20:00:00,62.8,56.9,29.56,SW,225,17.2,19.0,81,0.00,,CLR,0.54,VWS V14.01,2013-04-19 00:00:00,
2013-04-18 20:05:00,62.6,57.0,29.56,SW,225,12.3,12.8,82,0.00,,CLR,0.54,VWS V14.01,2013-04-19 00:05:00,
2013-04-18 20:10:00,62.4,57.2,29.56,SW,225,7.6,14.8,83,0.00,,CLR,0.54,VWS V14.01,2013-04-19 00:10:00,
2013-04-18 20:15:00,62.2,57.0,29.56,SW,225,7.8,17.9,83,0.00,,CLR,0.54,VWS V14.01,2013-04-19 00:15:00,
2013-04-18 20:20:00,62.2,57.0,29.56,SW,225,9.2,17.9,83,0.00,,CLR,0.54,VWS V14.01,2013-04-19 00:20:00,
2013-04-18 20:25:00,62.1,57.2,29.56,SW,225,12.8,17.9,84,0.00,,CLR,0.54,VWS V14.01,2013-04-19 00:25:00,
2013-04-18 20:30:00,61.9,57.3,29.56,SSW,202,12.5,18.1,85,0.00,,CLR,0.54,VWS V14.01,2013-04-19 00:30:00,
2013-04-18 20:36:00,61.9,57.3,29.56,SW,225,10.3,18.1,85,0.00,,CLR,0.54,VWS V14.01,2013-04-19 00:36:00,
2013-04-18 20:41:00,61.7,57.5,29.56,SSW,202,12.8,18.1,86,0.00,,CLR,0.54,VWS V14.01,2013-04-19 00:41:00,
2013-04-18 20:46:00,61.7,57.5,29.56,SW,225,13.0,18.1,86,0.00,,CLR,0.54,VWS V14.01,2013-04-19 00:46:00,
2013-04-18 20:51:00,61.5,57.6,29.56,SW,225,12.3,18.1,87,0.00,,CLR,0.54,VWS V14.01,2013-04-19 00:51:00,
2013-04-18 20:56:00,61.5,57.6,29.56,SSW,202,16.8,18.1,87,0.00,,CLR,0.54,VWS V14.01,2013-04-19 00:56:00,
2013-04-18 21:01:00,61.3,57.4,29.56,SSW,202,17.2,18.1,87,0.00,,CLR,0.54,VWS V14.01,2013-04-19 01:01:00,
2013-04-18 21:06:00,61.3,57.1,29.56,SSW,202,12.8,18.1,86,0.00,,CLR,0.54,VWS V14.01,2013-04-19 01:06:00,
2013-04-18 21:11:00,61.3,57.1,29.56,South,180,10.3,18.1,86,0.00,,CLR,0.54,VWS V14.01,2013-04-19 01:11:00,
2013-04-18 21:16:00,61.3,57.1,29.56,South,180,10.3,18.1,86,0.04,,CLR,0.58,VWS V14.01,2013-04-19 01:16:00,
2013-04-18 21:21:00,61.3,56.8,29.53,SSW,202,9.8,18.1,85,0.04,,CLR,0.58,VWS V14.01,2013-04-19 01:21:00,
2013-04-18 21:26:00,61.3,56.8,29.53,SW,225,11.4,18.1,85,0.04,,CLR,0.58,VWS V14.01,2013-04-19 01:26:00,
2013-04-18 21:31:00,61.3,56.8,29.53,SW,225,17.0,18.1,85,0.04,,CLR,0.58,VWS V14.01,2013-04-19 01:31:00,
2013-04-18 21:36:00,61.2,56.6,29.56,SSW,202,12.5,18.1,85,0.04,,CLR,0.58,VWS V14.01,2013-04-19 01:36:00,
2013-04-18 21:41:00,61.2,56.6,29.56,SSW,202,15.4,18.1,85,0.04,,CLR,0.58,VWS V14.01,2013-04-19 01:41:00,
2013-04-18 21:46:00,61.2,56.3,29.56,South,180,12.5,19.5,84,0.04,,CLR,0.58,VWS V14.01,2013-04-19 01:46:00,
2013-04-18 21:51:00,61.2,56.3,29.50,South,180,17.5,25.1,84,0.04,,CLR,0.58,VWS V14.01,2013-04-19 01:51:00,
2013-04-18 21:56:00,61.0,56.1,29.50,South,180,15.4,25.1,84,0.04,,CLR,0.58,VWS V14.01,2013-04-19 01:56:00,
2013-04-18 22:00:00,60.8,56.6,29.50,SSE,158,23.3,25.1,86,0.04,,CLR,0.58,VWS V14.01,2013-04-19 02:00:00,
2013-04-18 22:01:00,61.0,56.5,29.50,South,180,22.6,25.1,85,0.04,,CLR,0.58,VWS V14.01,2013-04-19 02:01:00,
2013-04-18 22:06:00,60.8,56.6,29.50,SSW,202,16.6,23.3,86,0.00,,CLR,0.58,VWS V14.01,2013-04-19 02:06:00,
2013-04-18 22:11:00,60.6,56.7,29.50,SSW,202,15.2,27.5,87,0.00,,CLR,0.58,VWS V14.01,2013-04-19 02:11:00,
2013-04-18 22:16:00,60.6,56.7,29.50,SSW,202,19.0,27.5,87,0.00,,CLR,0.58,VWS V14.01,2013-04-19 02:16:00,
2013-04-18 22:21:00,60.6,57.0,29.50,South,180,24.2,27.5,88,0.00,,CLR,0.58,VWS V14.01,2013-04-19 02:21:00,
2013-04-18 22:26:00,60.4,57.2,29.50,South,180,25.7,27.5,89,0.00,,CLR,0.58,VWS V14.01,2013-04-19 02:26:00,
2013-04-18 22:31:00,60.4,56.9,29.50,South,180,14.5,27.5,88,0.00,,CLR,0.58,VWS V14.01,2013-04-19 02:31:00,
2013-04-18 22:36:00,60.6,57.0,29.50,South,180,12.5,27.5,88,0.00,,CLR,0.58,VWS V14.01,2013-04-19 02:36:00,
2013-04-18 22:41:00,60.4,56.9,29.50,South,180,10.3,27.5,88,0.00,,CLR,0.58,VWS V14.01,2013-04-19 02:41:00,
2013-04-18 22:46:00,60.4,56.9,29.50,SSW,202,11.9,27.5,88,0.00,,CLR,0.58,VWS V14.01,2013-04-19 02:46:00,
2013-04-18 22:51:00,60.4,56.9,29.53,SSE,158,14.1,27.5,88,0.00,,CLR,0.58,VWS V14.01,2013-04-19 02:51:00,
2013-04-18 22:56:00,60.3,57.0,29.53,South,180,12.8,27.5,89,0.00,,CLR,0.58,VWS V14.01,2013-04-19 02:56:00,
2013-04-18 23:00:00,60.1,57.1,29.53,SSW,202,14.8,27.5,90,0.00,,CLR,0.58,VWS V14.01,2013-04-19 03:00:00,
2013-04-18 23:01:00,60.1,57.1,29.53,SSE,158,17.7,27.5,90,0.00,,CLR,0.58,VWS V14.01,2013-04-19 03:01:00,
2013-04-18 23:06:00,60.1,57.1,29.53,SSW,202,9.6,14.8,90,0.00,,CLR,0.58,VWS V14.01,2013-04-19 03:06:00,
2013-04-18 23:11:00,60.1,57.5,29.53,SSW,202,12.3,14.8,91,0.04,,CLR,0.62,VWS V14.01,2013-04-19 03:11:00,
2013-04-18 23:16:00,59.9,57.3,29.53,SSW,202,13.6,15.4,91,0.04,,CLR,0.62,VWS V14.01,2013-04-19 03:16:00,
2013-04-18 23:21:00,59.9,57.6,29.53,SSW,202,13.2,15.4,92,0.04,,CLR,0.62,VWS V14.01,2013-04-19 03:21:00,
2013-04-18 23:26:00,60.1,57.5,29.53,SSW,202,13.0,21.9,91,0.04,,CLR,0.62,VWS V14.01,2013-04-19 03:26:00,
2013-04-18 23:31:00,59.9,57.6,29.53,SSW,202,17.7,21.9,92,0.04,,CLR,0.62,VWS V14.01,2013-04-19 03:31:00,
2013-04-18 23:36:00,59.7,57.7,29.53,South,180,19.0,21.9,93,0.08,,CLR,0.66,VWS V14.01,2013-04-19 03:36:00,
2013-04-18 23:41:00,59.7,57.7,29.53,South,180,18.1,21.9,93,0.08,,CLR,0.66,VWS V14.01,2013-04-19 03:41:00,
2013-04-18 23:46:00,59.5,57.8,29.50,SSW,202,15.4,21.9,94,0.08,,CLR,0.66,VWS V14.01,2013-04-19 03:46:00,
2013-04-18 23:51:00,59.5,57.8,29.50,South,180,16.1,21.9,94,0.08,,CLR,0.66,VWS V14.01,2013-04-19 03:51:00,
2013-04-18 23:57:00,59.4,57.6,29.50,SSW,202,14.8,21.9,94,0.08,,CLR,0.66,VWS V14.01,2013-04-19 03:57:00,